Time;durP1;ratioP1;P1;durP2;ratioP2;P2;SDS_P1;SDS_P2;PMS_P1;PMS_P2;Temp;Humidity;BMP_temperature;BMP_pressure;BME280_temperature;BME280_humidity;BME280_pressure;Samples;Min_cycle;Max_cycle;Signal;HPM_P1;HPM_P2
2024/03/02 00:02:01;;;;;;;11.17;7.73;;;8.70;99.90;;;;;;5019204;28;20267;-68
2024/03/02 00:04:27;;;;;;;9.13;6.80;;;8.70;99.90;;;;;;5015164;28;20199;-68
2024/03/02 00:06:54;;;;;;;8.30;6.20;;;8.70;99.90;;;;;;5014010;28;20271;-68
2024/03/02 00:09:20;;;;;;;8.20;6.47;;;8.70;99.90;;;;;;5019267;28;20527;-68
2024/03/02 00:11:46;;;;;;;8.17;7.03;;;8.70;99.90;;;;;;5021624;28;20419;-68
2024/03/02 00:14:11;;;;;;;6.67;5.97;;;8.70;99.90;;;;;;5014982;28;20212;-68
2024/03/02 00:16:37;;;;;;;9.90;7.30;;;8.70;99.90;;;;;;5014827;28;20640;-68
2024/03/02 00:19:05;;;;;;;9.00;6.43;;;8.60;99.90;;;;;;5014259;28;20526;-68
2024/03/02 00:21:31;;;;;;;8.93;7.07;;;8.60;99.90;;;;;;5018308;28;20204;-68
2024/03/02 00:23:57;;;;;;;7.80;6.90;;;8.60;99.90;;;;;;5017383;28;20453;-68
2024/03/02 00:26:23;;;;;;;7.70;6.10;;;8.60;99.90;;;;;;5014533;28;20419;-68
2024/03/02 00:28:50;;;;;;;8.93;6.43;;;8.60;99.90;;;;;;5018395;28;20448;-68
2024/03/02 00:31:19;;;;;;;8.23;6.30;;;8.50;99.90;;;;;;5021408;28;20184;-68
2024/03/02 00:33:48;;;;;;;8.27;5.87;;;8.60;99.90;;;;;;5019650;28;20459;-68
2024/03/02 00:36:24;;;;;;;7.93;6.47;;;8.50;99.90;;;;;;5013903;28;20432;-68
2024/03/02 00:38:52;;;;;;;9.97;6.30;;;8.50;99.90;;;;;;5018082;28;20414;-68
2024/03/02 00:41:31;;;;;;;9.57;6.13;;;8.50;99.90;;;;;;5019985;28;20470;-68
2024/03/02 00:44:05;;;;;;;8.83;6.37;;;8.50;99.90;;;;;;5020246;28;20439;-68
2024/03/02 00:46:38;;;;;;;10.50;6.90;;;8.50;99.90;;;;;;5022725;28;21011;-68
2024/03/02 00:49:10;;;;;;;9.33;6.40;;;8.40;99.90;;;;;;5019212;28;20431;-68
2024/03/02 00:51:36;;;;;;;7.50;5.90;;;8.40;99.90;;;;;;5021785;28;20442;-68
2024/03/02 00:54:04;;;;;;;8.40;5.93;;;8.40;99.90;;;;;;5019878;28;20483;-68
2024/03/02 00:56:30;;;;;;;6.53;5.10;;;8.40;99.90;;;;;;5016424;28;20454;-68
2024/03/02 00:58:56;;;;;;;7.50;5.90;;;8.40;99.90;;;;;;5022020;28;20424;-68
2024/03/02 01:01:22;;;;;;;7.27;5.50;;;8.40;99.90;;;;;;5015412;28;20977;-68
2024/03/02 01:03:48;;;;;;;9.77;6.93;;;8.40;99.90;;;;;;5024333;28;20637;-68
2024/03/02 01:06:15;;;;;;;9.63;7.20;;;8.40;99.90;;;;;;5022111;28;20432;-68
2024/03/02 01:08:41;;;;;;;9.73;7.70;;;8.30;99.90;;;;;;5016714;28;20444;-68
2024/03/02 01:11:06;;;;;;;10.13;7.30;;;8.30;99.90;;;;;;5017535;28;20470;-68
2024/03/02 01:13:32;;;;;;;11.30;8.17;;;8.30;99.90;;;;;;5024550;28;20638;-68
2024/03/02 01:15:58;;;;;;;11.40;8.03;;;8.20;99.90;;;;;;5021662;28;20914;-68
2024/03/02 01:18:24;;;;;;;9.87;7.43;;;8.20;99.90;;;;;;5022921;28;20944;-68
2024/03/02 01:20:55;;;;;;;9.33;7.80;;;8.10;99.90;;;;;;5017263;28;20458;-68
2024/03/02 01:23:22;;;;;;;9.13;6.57;;;8.00;99.90;;;;;;5024949;28;20415;-68
2024/03/02 01:25:47;;;;;;;9.20;6.93;;;8.00;99.90;;;;;;5020636;28;20919;-68
2024/03/02 01:28:14;;;;;;;10.90;8.30;;;8.00;99.90;;;;;;5023760;28;20462;-68
2024/03/02 01:30:39;;;;;;;8.57;7.20;;;7.90;99.90;;;;;;5017922;28;20176;-68
2024/03/02 01:33:05;;;;;;;12.70;8.90;;;7.90;99.90;;;;;;5020435;28;20439;-68
2024/03/02 01:35:31;;;;;;;10.40;7.00;;;7.90;99.90;;;;;;5018185;28;20741;-69
2024/03/02 01:37:57;;;;;;;9.20;7.40;;;7.90;99.90;;;;;;5028722;28;20643;-68
2024/03/02 01:40:26;;;;;;;11.70;6.83;;;7.90;99.90;;;;;;5017078;28;20499;-68
2024/03/02 01:42:53;;;;;;;9.43;7.90;;;7.90;99.90;;;;;;5013999;28;20593;-68
2024/03/02 01:45:18;;;;;;;11.63;7.40;;;7.90;99.90;;;;;;5022087;28;21067;-68
2024/03/02 01:47:44;;;;;;;10.30;7.87;;;7.80;99.90;;;;;;5020617;28;20511;-68
2024/03/02 01:50:11;;;;;;;8.70;6.77;;;7.80;99.90;;;;;;5020541;28;20651;-68
2024/03/02 01:52:37;;;;;;;10.07;6.87;;;7.80;99.90;;;;;;5014240;28;20651;-68
2024/03/02 01:55:03;;;;;;;10.30;7.23;;;7.80;99.90;;;;;;5020642;28;20448;-68
2024/03/02 01:57:29;;;;;;;8.33;6.20;;;7.80;99.90;;;;;;5018511;28;20695;-68
2024/03/02 01:59:55;;;;;;;8.67;6.30;;;7.80;99.90;;;;;;5018339;28;20420;-68
2024/03/02 02:02:21;;;;;;;8.03;6.33;;;7.70;99.90;;;;;;5022501;28;20204;-68
2024/03/02 02:04:46;;;;;;;9.67;6.20;;;7.70;99.90;;;;;;5014975;28;20920;-68
2024/03/02 02:07:14;;;;;;;8.93;5.33;;;7.70;99.90;;;;;;5021949;28;20264;-68
2024/03/02 02:09:41;;;;;;;10.47;6.87;;;7.70;99.90;;;;;;5020568;28;20195;-68
2024/03/02 02:12:07;;;;;;;8.20;5.53;;;7.70;99.90;;;;;;5022490;28;20438;-68
2024/03/02 02:14:33;;;;;;;7.77;5.37;;;7.70;99.90;;;;;;5019122;28;20451;-68
2024/03/02 02:16:59;;;;;;;6.97;5.13;;;7.70;99.90;;;;;;5021892;28;20464;-68
2024/03/02 02:19:25;;;;;;;7.37;5.50;;;7.70;99.90;;;;;;5015364;28;20454;-68
2024/03/02 02:21:50;;;;;;;8.20;5.10;;;7.70;99.90;;;;;;5023863;28;20471;-68
2024/03/02 02:24:16;;;;;;;7.70;5.43;;;7.70;99.90;;;;;;5014895;28;20200;-68
2024/03/02 02:26:41;;;;;;;7.83;5.00;;;7.60;99.90;;;;;;5012275;28;20193;-68
2024/03/02 02:29:07;;;;;;;8.23;5.40;;;7.60;99.90;;;;;;5019016;28;20173;-69
2024/03/02 02:31:40;;;;;;;6.67;4.83;;;7.60;99.90;;;;;;5017164;28;20609;-68
2024/03/02 02:34:06;;;;;;;9.43;4.93;;;7.60;99.90;;;;;;5019045;28;20204;-68
2024/03/02 02:36:38;;;;;;;6.63;4.87;;;7.60;99.90;;;;;;5019069;28;20431;-68
2024/03/02 02:39:04;;;;;;;6.83;5.10;;;7.60;99.90;;;;;;5019965;28;20407;-68
2024/03/02 02:41:30;;;;;;;7.07;5.60;;;7.50;99.90;;;;;;5021816;28;20530;-68
2024/03/02 02:43:56;;;;;;;5.63;5.07;;;7.50;99.90;;;;;;5018936;28;20550;-68
2024/03/02 02:46:21;;;;;;;6.73;5.70;;;7.50;99.90;;;;;;5012428;28;20189;-68
2024/03/02 02:48:47;;;;;;;7.80;5.67;;;7.50;99.90;;;;;;5020172;28;20423;-68
2024/03/02 02:51:13;;;;;;;7.93;6.00;;;7.50;99.90;;;;;;5015919;28;20269;-68
2024/03/02 02:53:40;;;;;;;8.00;6.03;;;7.50;99.90;;;;;;5023995;28;20263;-68
2024/03/02 02:56:06;;;;;;;7.93;5.53;;;7.50;99.90;;;;;;5025867;28;20173;-68
2024/03/02 02:58:32;;;;;;;6.80;4.80;;;7.50;99.90;;;;;;5024815;28;20438;-68
2024/03/02 03:00:57;;;;;;;6.00;5.17;;;7.50;99.90;;;;;;5024241;28;20553;-68
2024/03/02 03:03:23;;;;;;;6.87;5.50;;;7.50;99.90;;;;;;5020716;28;20188;-68
2024/03/02 03:05:49;;;;;;;6.93;5.70;;;7.50;99.90;;;;;;5016562;28;20183;-68
2024/03/02 03:08:15;;;;;;;6.97;5.73;;;7.50;99.90;;;;;;5020790;28;20231;-68
2024/03/02 03:10:41;;;;;;;10.40;6.03;;;7.50;99.90;;;;;;5018132;28;20180;-68
2024/03/02 03:13:08;;;;;;;6.07;4.40;;;7.50;99.90;;;;;;5023675;28;20952;-68
2024/03/02 03:15:36;;;;;;;8.90;5.20;;;7.50;99.90;;;;;;5019097;28;20205;-68
2024/03/02 03:18:04;;;;;;;8.30;4.60;;;7.50;99.90;;;;;;5010775;28;20463;-68
2024/03/02 03:20:30;;;;;;;6.00;4.80;;;7.50;99.90;;;;;;5031927;28;20455;-68
2024/03/02 03:22:57;;;;;;;6.50;5.00;;;7.50;99.90;;;;;;5023508;28;20499;-68
2024/03/02 03:25:23;;;;;;;8.40;5.00;;;7.50;99.90;;;;;;5008638;28;20458;-68
2024/03/02 03:27:48;;;;;;;6.70;5.23;;;7.50;99.90;;;;;;5022830;28;20489;-68
2024/03/02 03:30:14;;;;;;;6.73;5.40;;;7.50;99.90;;;;;;5015482;28;20424;-68
2024/03/02 03:32:40;;;;;;;7.47;4.47;;;7.50;99.90;;;;;;5014348;28;20214;-68
2024/03/02 03:35:06;;;;;;;6.93;4.73;;;7.40;99.90;;;;;;5019276;28;20265;-68
2024/03/02 03:37:35;;;;;;;5.83;4.47;;;7.50;99.90;;;;;;5026274;28;20463;-68
2024/03/02 03:40:02;;;;;;;6.73;4.63;;;7.40;99.90;;;;;;5019126;28;20443;-68
2024/03/02 03:42:28;;;;;;;6.03;4.43;;;7.40;99.90;;;;;;5020810;28;20546;-68
2024/03/02 03:44:54;;;;;;;5.47;4.40;;;7.40;99.90;;;;;;5019963;28;20442;-68
2024/03/02 03:47:20;;;;;;;12.20;5.30;;;7.40;99.90;;;;;;5018882;28;20180;-68
2024/03/02 03:49:45;;;;;;;8.43;4.43;;;7.40;99.90;;;;;;5020349;28;20631;-67
2024/03/02 03:52:11;;;;;;;5.40;4.10;;;7.40;99.90;;;;;;5017704;28;20778;-68
2024/03/02 03:54:38;;;;;;;5.33;4.40;;;7.40;99.90;;;;;;5021417;28;20280;-68
2024/03/02 03:57:04;;;;;;;6.13;4.17;;;7.40;99.90;;;;;;5019892;28;20200;-68
2024/03/02 03:59:29;;;;;;;6.00;4.60;;;7.40;99.90;;;;;;5014753;28;20432;-68
2024/03/02 04:01:55;;;;;;;4.37;3.63;;;7.40;99.90;;;;;;5023906;28;20212;-68
2024/03/02 04:04:20;;;;;;;6.37;4.93;;;7.40;99.90;;;;;;5014999;28;20209;-69
2024/03/02 04:06:46;;;;;;;6.77;5.13;;;7.40;99.90;;;;;;5017733;28;20184;-68
2024/03/02 04:09:11;;;;;;;5.10;3.87;;;7.40;99.90;;;;;;5015579;28;20512;-68
2024/03/02 04:11:37;;;;;;;5.60;4.40;;;7.40;99.90;;;;;;5020826;28;20566;-68
2024/03/02 04:14:02;;;;;;;5.20;4.53;;;7.40;99.90;;;;;;5017670;28;20542;-68
2024/03/02 04:16:28;;;;;;;4.70;4.13;;;7.40;99.90;;;;;;5018491;28;20205;-68
2024/03/02 04:18:54;;;;;;;6.00;4.57;;;7.40;99.90;;;;;;5023170;28;20199;-68
2024/03/02 04:21:19;;;;;;;5.77;4.47;;;7.40;99.90;;;;;;5020207;28;20200;-68
2024/03/02 04:23:45;;;;;;;5.60;4.43;;;7.30;99.90;;;;;;5011257;28;20278;-68
2024/03/02 04:26:11;;;;;;;5.50;4.47;;;7.30;99.90;;;;;;5013493;28;20176;-68
2024/03/02 04:28:36;;;;;;;7.23;4.70;;;7.30;99.90;;;;;;5018933;28;20181;-68
2024/03/02 04:31:02;;;;;;;5.80;4.87;;;7.30;99.90;;;;;;5012888;28;20267;-68
2024/03/02 04:33:27;;;;;;;8.53;5.40;;;7.30;99.90;;;;;;5016706;28;20212;-68
2024/03/02 04:35:53;;;;;;;10.07;5.73;;;7.30;99.90;;;;;;5023438;28;20185;-67
2024/03/02 04:38:19;;;;;;;9.20;5.10;;;7.30;99.90;;;;;;5015652;28;20181;-68
2024/03/02 04:40:44;;;;;;;8.40;5.50;;;7.30;99.90;;;;;;5025650;28;20187;-67
2024/03/02 04:43:10;;;;;;;7.70;4.83;;;7.30;99.90;;;;;;5017950;28;20181;-67
2024/03/02 04:45:38;;;;;;;6.17;5.30;;;7.30;99.90;;;;;;5016304;28;20240;-67
2024/03/02 04:48:04;;;;;;;7.67;5.40;;;7.30;99.90;;;;;;5025335;28;20259;-68
2024/03/02 04:50:29;;;;;;;7.80;5.70;;;7.30;99.90;;;;;;5017428;28;20543;-68
2024/03/02 04:52:55;;;;;;;8.53;5.20;;;7.30;99.90;;;;;;5023595;28;20177;-68
2024/03/02 04:57:50;;;;;;;7.10;6.10;;;7.20;99.90;;;;;;5022658;28;20241;-67
2024/03/02 05:00:17;;;;;;;6.33;4.77;;;7.20;99.90;;;;;;5016915;28;20427;-68
2024/03/02 05:02:42;;;;;;;9.13;6.27;;;7.20;99.90;;;;;;5025032;28;20529;-67
2024/03/02 05:05:08;;;;;;;7.73;5.37;;;7.20;99.90;;;;;;5009224;28;20452;-68
2024/03/02 05:07:34;;;;;;;6.60;4.83;;;7.20;99.90;;;;;;5017817;28;20267;-68
2024/03/02 05:09:59;;;;;;;6.70;5.50;;;7.20;99.90;;;;;;5027915;28;20200;-68
2024/03/02 05:15:13;;;;;;;6.97;5.20;;;7.10;99.90;;;;;;5022621;28;20304;-68
2024/03/02 05:17:40;;;;;;;8.30;5.90;;;7.00;99.90;;;;;;5019032;28;20494;-67
2024/03/02 05:20:08;;;;;;;10.33;6.27;;;7.00;99.90;;;;;;5020732;28;20420;-67
2024/03/02 05:22:34;;;;;;;10.07;6.17;;;7.00;99.90;;;;;;5024946;28;20812;-68
2024/03/02 05:25:00;;;;;;;10.23;6.37;;;6.90;99.90;;;;;;5028545;28;20497;-68
2024/03/02 05:27:29;;;;;;;9.63;7.07;;;6.90;99.90;;;;;;5028250;28;20924;-68
2024/03/02 05:29:55;;;;;;;8.83;6.67;;;6.80;99.90;;;;;;5026801;28;20463;-68
2024/03/02 05:32:20;;;;;;;11.50;7.63;;;6.80;99.90;;;;;;5026099;28;20462;-68
2024/03/02 05:34:46;;;;;;;9.97;6.83;;;6.70;99.90;;;;;;5020417;28;20212;-68
2024/03/02 05:37:11;;;;;;;7.50;6.60;;;6.70;99.90;;;;;;5028148;28;20180;-68
2024/03/02 05:39:37;;;;;;;9.30;7.10;;;6.60;99.90;;;;;;5023825;28;20192;-68
2024/03/02 05:42:03;;;;;;;9.40;7.33;;;6.60;99.90;;;;;;5030488;28;20218;-68
2024/03/02 05:44:29;;;;;;;9.90;7.30;;;6.50;99.90;;;;;;5024853;28;20216;-68
2024/03/02 05:46:54;;;;;;;17.00;7.30;;;6.50;99.90;;;;;;5035771;28;20281;-67
2024/03/02 05:49:20;;;;;;;10.67;8.13;;;6.50;99.90;;;;;;5018193;28;20715;-67
2024/03/02 05:51:46;;;;;;;9.37;7.13;;;6.50;99.90;;;;;;5028955;28;20422;-67
2024/03/02 05:54:11;;;;;;;10.70;7.33;;;6.50;99.90;;;;;;5023876;28;20227;-68
2024/03/02 05:56:37;;;;;;;11.43;8.23;;;6.50;99.90;;;;;;5029006;28;20246;-68
2024/03/02 05:59:16;;;;;;;7.77;6.60;;;6.50;99.90;;;;;;5024604;28;20212;-68
2024/03/02 06:01:50;;;;;;;10.17;6.90;;;6.50;99.90;;;;;;5034334;28;20283;-67
2024/03/02 06:04:16;;;;;;;8.30;6.87;;;6.40;99.90;;;;;;5023156;28;20428;-67
2024/03/02 06:06:41;;;;;;;8.73;7.40;;;6.40;99.90;;;;;;5029302;28;20415;-68
2024/03/02 06:09:08;;;;;;;10.60;7.70;;;6.40;99.90;;;;;;5022091;28;20180;-67
2024/03/02 06:11:37;;;;;;;10.90;8.17;;;6.40;99.90;;;;;;5019343;28;20436;-67
2024/03/02 06:14:04;;;;;;;12.63;7.13;;;6.40;99.90;;;;;;5022102;28;20447;-68
2024/03/02 06:16:30;;;;;;;10.50;7.40;;;6.40;99.90;;;;;;5017651;28;20431;-68
2024/03/02 06:18:57;;;;;;;8.60;7.20;;;6.40;99.90;;;;;;5022734;28;20517;-68
2024/03/02 06:21:23;;;;;;;8.63;7.70;;;6.40;99.90;;;;;;5017378;28;20314;-68
2024/03/02 06:23:49;;;;;;;8.53;7.30;;;6.40;99.90;;;;;;5032910;28;20828;-68
2024/03/02 06:26:15;;;;;;;11.07;8.10;;;6.40;99.90;;;;;;5019206;28;20415;-68
2024/03/02 06:28:40;;;;;;;10.33;7.90;;;6.50;99.90;;;;;;5029754;28;20181;-68
2024/03/02 06:31:06;;;;;;;8.57;7.60;;;6.50;99.90;;;;;;5022734;28;20177;-68
2024/03/02 06:33:31;;;;;;;9.27;7.63;;;6.50;99.90;;;;;;5019033;28;20189;-68
2024/03/02 06:35:57;;;;;;;10.67;7.57;;;6.50;99.90;;;;;;5030797;28;20200;-68
2024/03/02 06:38:23;;;;;;;11.03;7.73;;;6.50;99.90;;;;;;5027732;28;20602;-68
2024/03/02 06:40:48;;;;;;;9.13;7.30;;;6.50;99.90;;;;;;5026389;28;20568;-68
2024/03/02 06:43:14;;;;;;;10.40;7.27;;;6.50;99.90;;;;;;5022727;28;20200;-69
2024/03/02 06:45:39;;;;;;;9.33;7.40;;;6.60;99.90;;;;;;5021792;28;20196;-68
2024/03/02 06:48:05;;;;;;;9.37;7.30;;;6.60;99.90;;;;;;5020284;28;20674;-68
2024/03/02 06:50:31;;;;;;;10.60;7.57;;;6.60;99.90;;;;;;5013914;28;20208;-68
2024/03/02 06:52:57;;;;;;;14.30;8.37;;;6.60;99.90;;;;;;5028105;28;20505;-68
2024/03/02 06:55:24;;;;;;;8.63;7.60;;;6.60;99.90;;;;;;5016294;28;20200;-68
2024/03/02 06:57:50;;;;;;;9.40;7.70;;;6.60;99.90;;;;;;5019803;28;20439;-68
2024/03/02 07:00:17;;;;;;;11.10;8.13;;;6.60;99.90;;;;;;5018033;28;21024;-68
2024/03/02 07:02:44;;;;;;;9.80;8.20;;;6.60;99.90;;;;;;5021474;28;20232;-68
2024/03/02 07:05:10;;;;;;;9.60;8.37;;;6.60;99.90;;;;;;5028267;28;20434;-67
2024/03/02 07:07:36;;;;;;;10.60;8.73;;;6.60;99.90;;;;;;5020948;28;20431;-67
2024/03/02 07:10:03;;;;;;;10.00;9.00;;;6.60;99.90;;;;;;5031464;28;20179;-68
2024/03/02 07:12:28;;;;;;;10.70;9.60;;;6.60;99.90;;;;;;5017718;28;20439;-67
2024/03/02 07:15:11;;;;;;;11.27;9.63;;;6.60;99.90;;;;;;5024447;28;20810;-68
2024/03/02 07:17:37;;;;;;;12.10;8.73;;;6.60;99.90;;;;;;5024420;28;20598;-68
2024/03/02 07:20:06;;;;;;;9.80;8.20;;;6.60;99.90;;;;;;5024026;28;20412;-68
2024/03/02 07:22:33;;;;;;;9.70;8.70;;;6.70;99.90;;;;;;5022465;28;20497;-68
2024/03/02 07:24:58;;;;;;;9.23;8.00;;;6.70;99.90;;;;;;5021508;28;20989;-68
2024/03/02 07:27:24;;;;;;;10.33;8.20;;;6.70;99.90;;;;;;5015435;28;20473;-68
2024/03/02 07:29:50;;;;;;;8.63;7.50;;;6.70;99.90;;;;;;5019596;28;20177;-68
2024/03/02 07:32:15;;;;;;;10.00;8.47;;;6.80;99.90;;;;;;5021965;28;20215;-67
2024/03/02 07:34:41;;;;;;;9.97;7.77;;;6.90;99.90;;;;;;5016904;28;20668;-68
2024/03/02 07:37:06;;;;;;;8.77;7.87;;;6.90;99.90;;;;;;5020894;28;20195;-68
2024/03/02 07:39:32;;;;;;;10.97;8.23;;;7.00;99.90;;;;;;5019581;28;20208;-68
2024/03/02 07:41:59;;;;;;;11.50;9.60;;;7.10;99.90;;;;;;5014539;28;20244;-68
2024/03/02 07:44:24;;;;;;;9.27;7.10;;;7.20;99.90;;;;;;5018969;28;20197;-68
2024/03/02 07:46:50;;;;;;;12.50;8.13;;;7.20;99.90;;;;;;5019627;28;20418;-68
2024/03/02 07:49:16;;;;;;;8.73;7.73;;;7.40;99.90;;;;;;5022760;28;20798;-68
2024/03/02 07:51:42;;;;;;;9.17;7.90;;;7.40;99.90;;;;;;5022674;28;20192;-68
2024/03/02 07:54:07;;;;;;;9.63;8.63;;;7.50;99.90;;;;;;5026486;28;20200;-68
2024/03/02 07:56:33;;;;;;;12.53;9.23;;;7.60;99.90;;;;;;5024273;28;20435;-68
2024/03/02 07:59:01;;;;;;;9.30;7.47;;;7.70;99.90;;;;;;5032761;28;20219;-68
2024/03/02 08:01:31;;;;;;;10.93;8.07;;;7.70;99.90;;;;;;5027216;28;20465;-68
2024/03/02 08:03:58;;;;;;;10.57;7.70;;;7.80;99.90;;;;;;5030571;28;20450;-67
2024/03/02 08:06:27;;;;;;;10.70;8.27;;;7.90;99.90;;;;;;5032005;28;20429;-68
2024/03/02 08:09:04;;;;;;;10.83;7.67;;;8.00;99.90;;;;;;5019315;28;20457;-68
2024/03/02 08:11:30;;;;;;;11.17;7.80;;;8.00;99.90;;;;;;5018627;28;20531;-68
2024/03/02 08:13:56;;;;;;;10.63;6.40;;;8.10;99.90;;;;;;5024670;28;20462;-68
2024/03/02 08:16:23;;;;;;;6.90;5.67;;;8.20;99.90;;;;;;5027785;28;20446;-68
2024/03/02 08:18:49;;;;;;;11.70;9.30;;;8.20;99.90;;;;;;5030912;28;20708;-68
2024/03/02 08:21:15;;;;;;;9.67;5.70;;;8.30;99.90;;;;;;5030272;28;20467;-68
2024/03/02 08:23:42;;;;;;;7.33;4.83;;;8.40;99.90;;;;;;5033011;28;20827;-68
2024/03/02 08:26:08;;;;;;;7.33;5.33;;;8.40;99.90;;;;;;5022268;28;20750;-69
2024/03/02 08:28:34;;;;;;;6.30;5.07;;;8.50;99.90;;;;;;5020395;28;20527;-68
2024/03/02 08:31:00;;;;;;;8.97;5.07;;;8.60;99.90;;;;;;5024157;28;21016;-68
2024/03/02 08:33:25;;;;;;;5.50;4.67;;;8.60;99.90;;;;;;5031244;28;20206;-67
2024/03/02 08:35:51;;;;;;;6.27;4.50;;;8.70;99.90;;;;;;5026420;28;20176;-68
2024/03/02 08:38:16;;;;;;;6.33;4.50;;;8.80;99.90;;;;;;5029579;28;20260;-68
2024/03/02 08:40:42;;;;;;;5.87;4.40;;;8.80;99.90;;;;;;5022636;28;20188;-68
2024/03/02 08:43:08;;;;;;;29.17;5.37;;;8.90;99.90;;;;;;5016939;28;20204;-67
2024/03/02 08:45:34;;;;;;;7.07;4.30;;;9.00;99.90;;;;;;5026191;28;20216;-68
2024/03/02 08:48:00;;;;;;;6.30;4.33;;;9.10;99.90;;;;;;5026902;28;20311;-68
2024/03/02 08:50:25;;;;;;;31.97;6.03;;;9.10;99.90;;;;;;5024240;28;20446;-68
2024/03/02 08:52:51;;;;;;;11.03;4.00;;;9.20;99.90;;;;;;5023102;28;20184;-68
2024/03/02 08:55:16;;;;;;;6.37;4.00;;;9.30;99.90;;;;;;5029022;28;20196;-69
2024/03/02 08:57:42;;;;;;;4.87;3.60;;;9.40;99.90;;;;;;5021698;28;20243;-68
2024/03/02 09:00:08;;;;;;;5.27;4.50;;;9.50;99.90;;;;;;5021323;28;20181;-68
2024/03/02 09:02:34;;;;;;;5.13;3.53;;;9.50;99.90;;;;;;5021727;28;20197;-68
2024/03/02 09:05:00;;;;;;;5.97;3.53;;;9.60;99.90;;;;;;5025169;28;20439;-68
2024/03/02 09:07:25;;;;;;;4.87;3.50;;;9.70;99.90;;;;;;5014068;28;20177;-68
2024/03/02 09:09:52;;;;;;;6.23;3.73;;;9.80;99.90;;;;;;5026101;28;20263;-68
2024/03/02 09:12:18;;;;;;;5.00;3.73;;;9.80;99.90;;;;;;5022386;28;20646;-68
2024/03/02 09:14:44;;;;;;;4.20;3.10;;;9.90;99.90;;;;;;5024079;28;20538;-68
2024/03/02 09:17:11;;;;;;;5.20;3.70;;;9.90;99.90;;;;;;5017309;28;21010;-68
2024/03/02 09:19:37;;;;;;;7.80;4.00;;;10.00;99.90;;;;;;5023391;28;20488;-68
2024/03/02 09:22:05;;;;;;;3.83;3.30;;;10.10;99.90;;;;;;5021859;28;20462;-68
2024/03/02 09:24:33;;;;;;;5.57;3.23;;;10.10;99.90;;;;;;5028686;28;20519;-68
2024/03/02 09:26:59;;;;;;;4.13;3.40;;;10.20;99.90;;;;;;5022022;28;20436;-68
2024/03/02 09:29:25;;;;;;;4.70;3.10;;;10.30;99.90;;;;;;5030127;28;20892;-68
2024/03/02 09:31:50;;;;;;;5.43;3.27;;;10.30;99.90;;;;;;5020687;28;20450;-68
2024/03/02 09:34:16;;;;;;;5.93;3.60;;;10.40;99.90;;;;;;5025499;28;20555;-68
2024/03/02 09:36:42;;;;;;;3.93;3.50;;;10.50;99.90;;;;;;5027608;28;20203;-68
2024/03/02 09:39:09;;;;;;;3.57;3.10;;;10.50;99.90;;;;;;5023113;28;20485;-68
2024/03/02 09:41:36;;;;;;;3.93;3.20;;;10.60;99.90;;;;;;5027407;28;20474;-67
2024/03/02 09:44:02;;;;;;;4.20;3.40;;;10.60;99.90;;;;;;5023107;28;20439;-68
2024/03/02 09:46:28;;;;;;;5.77;4.83;;;10.60;99.90;;;;;;5022498;28;20426;-68
2024/03/02 09:48:54;;;;;;;6.73;3.10;;;10.70;99.90;;;;;;5027983;28;20499;-68
2024/03/02 09:51:20;;;;;;;4.23;3.40;;;10.80;99.90;;;;;;5025098;28;20188;-68
2024/03/02 09:53:46;;;;;;;8.87;3.30;;;10.90;99.90;;;;;;5027087;28;20430;-68
2024/03/02 09:56:12;;;;;;;5.17;3.03;;;10.90;99.90;;;;;;5029670;28;20188;-68
2024/03/02 09:58:39;;;;;;;9.17;3.00;;;10.90;99.90;;;;;;5022094;28;20419;-68
2024/03/02 10:01:07;;;;;;;7.27;3.80;;;11.00;99.90;;;;;;5028728;28;20179;-68
2024/03/02 10:03:34;;;;;;;5.43;3.20;;;11.00;99.90;;;;;;5020388;28;20442;-68
2024/03/02 10:06:21;;;;;;;4.70;3.03;;;11.10;99.90;;;;;;5020490;28;20411;-68
2024/03/02 10:08:48;;;;;;;26.60;4.33;;;11.30;99.90;;;;;;5026104;28;20470;-68
2024/03/02 10:11:30;;;;;;;5.00;3.53;;;11.40;99.90;;;;;;5021589;28;20682;-68
2024/03/02 10:14:14;;;;;;;5.77;3.40;;;11.40;99.90;;;;;;5019968;28;20462;-68
2024/03/02 10:16:41;;;;;;;5.27;3.53;;;11.60;99.90;;;;;;5016390;28;20525;-68
2024/03/02 10:19:21;;;;;;;5.50;2.97;;;11.70;99.90;;;;;;5022272;28;20802;-68
2024/03/02 10:21:54;;;;;;;11.30;3.27;;;11.80;99.90;;;;;;5018821;28;20470;-68
2024/03/02 10:24:21;;;;;;;4.10;3.30;;;11.90;99.90;;;;;;5022181;28;20435;-67
2024/03/02 10:26:47;;;;;;;4.60;3.10;;;12.00;99.90;;;;;;5019497;28;20418;-68
2024/03/02 10:29:12;;;;;;;4.57;3.37;;;12.10;99.90;;;;;;5025309;28;20520;-67
2024/03/02 10:31:39;;;;;;;3.80;3.03;;;12.20;99.90;;;;;;5020837;28;20544;-68
2024/03/02 10:34:06;;;;;;;4.20;3.50;;;12.30;99.90;;;;;;5025817;28;20562;-67
2024/03/02 10:36:36;;;;;;;4.80;3.90;;;12.50;99.90;;;;;;5024934;28;21190;-68
2024/03/02 10:39:03;;;;;;;4.30;3.20;;;12.60;99.90;;;;;;5023888;28;20411;-66
2024/03/02 10:41:34;;;;;;;3.80;3.10;;;12.60;99.90;;;;;;5026676;28;20837;-68
2024/03/02 10:44:01;;;;;;;5.40;3.40;;;12.70;99.90;;;;;;5021298;28;20536;-68
2024/03/02 10:46:29;;;;;;;4.33;2.90;;;12.80;99.90;;;;;;5020595;28;20447;-67
2024/03/02 10:48:59;;;;;;;3.53;2.90;;;12.90;99.90;;;;;;5023404;28;20403;-68
2024/03/02 10:51:31;;;;;;;3.80;3.37;;;12.90;99.90;;;;;;5026589;28;20419;-68
2024/03/02 10:53:57;;;;;;;3.47;2.53;;;13.00;99.90;;;;;;5019365;28;21232;-67
2024/03/02 10:56:30;;;;;;;3.97;3.20;;;13.10;99.90;;;;;;5025350;28;20998;-67
2024/03/02 10:59:26;;;;;;;3.70;2.90;;;13.10;99.90;;;;;;5018975;28;20411;-67
2024/03/02 11:01:56;;;;;;;4.87;2.97;;;13.20;99.90;;;;;;5023281;28;20961;-67
2024/03/02 11:04:24;;;;;;;3.63;2.77;;;13.30;99.90;;;;;;5016794;28;20446;-67
2024/03/02 11:06:51;;;;;;;4.40;3.13;;;13.40;99.90;;;;;;5020078;28;20510;-67
2024/03/02 11:09:25;;;;;;;6.10;2.70;;;13.50;99.90;;;;;;5019664;28;20537;-67
2024/03/02 11:12:02;;;;;;;3.53;2.57;;;13.60;99.90;;;;;;5022671;28;20435;-67
2024/03/02 11:14:33;;;;;;;3.50;2.50;;;13.60;99.90;;;;;;5019148;28;20446;-67
2024/03/02 11:17:01;;;;;;;4.30;3.00;;;13.70;99.90;;;;;;5018389;28;20443;-67
2024/03/02 11:19:28;;;;;;;4.27;3.87;;;13.80;99.90;;;;;;5022044;28;20785;-67
2024/03/02 11:21:54;;;;;;;3.97;2.30;;;13.90;99.90;;;;;;5024663;28;20459;-66
2024/03/02 11:24:23;;;;;;;3.07;2.53;;;13.80;99.90;;;;;;5021639;28;20534;-67
2024/03/02 11:26:51;;;;;;;2.63;2.00;;;14.00;99.90;;;;;;5021930;28;20935;-67
2024/03/02 11:29:35;;;;;;;3.97;2.40;;;13.90;99.90;;;;;;5023179;28;20478;-67
2024/03/02 11:32:02;;;;;;;6.67;5.43;;;14.10;99.90;;;;;;5020603;28;20995;-67
2024/03/02 11:34:33;;;;;;;2.80;2.23;;;14.10;99.90;;;;;;5021402;28;20431;-67
2024/03/02 11:36:59;;;;;;;5.33;4.30;;;14.20;99.90;;;;;;5026558;28;20485;-67
2024/03/02 11:39:28;;;;;;;3.67;3.00;;;14.30;99.90;;;;;;5023209;28;20506;-67
2024/03/02 11:41:55;;;;;;;2.33;1.90;;;14.40;99.90;;;;;;5018135;28;20649;-67
2024/03/02 11:44:21;;;;;;;2.70;2.10;;;14.50;99.90;;;;;;5024225;28;20444;-67
2024/03/02 11:46:59;;;;;;;4.67;2.20;;;14.50;99.90;;;;;;5021621;28;20420;-67
2024/03/02 11:49:41;;;;;;;3.27;2.10;;;14.70;99.90;;;;;;5021294;28;20318;-67
2024/03/02 11:52:09;;;;;;;2.90;2.20;;;14.80;99.90;;;;;;5015007;28;20557;-68
2024/03/02 11:54:36;;;;;;;4.07;2.33;;;15.00;99.90;;;;;;5020367;28;20463;-67
2024/03/02 11:57:03;;;;;;;4.07;2.20;;;15.20;99.90;;;;;;5020552;28;21031;-67
2024/03/02 11:59:32;;;;;;;2.47;2.07;;;15.30;99.90;;;;;;5024567;28;20501;-67
2024/03/02 12:01:59;;;;;;;3.37;2.50;;;15.50;99.90;;;;;;5024607;28;20470;-67
2024/03/02 12:04:25;;;;;;;3.80;2.57;;;15.70;99.90;;;;;;5029437;28;21125;-68
2024/03/02 12:07:01;;;;;;;2.63;2.20;;;15.90;99.90;;;;;;5020415;28;20435;-68
2024/03/02 12:09:28;;;;;;;3.60;2.50;;;16.30;99.90;;;;;;5021045;28;20418;-69
2024/03/02 12:12:10;;;;;;;3.27;2.20;;;16.70;99.90;;;;;;5019883;28;20890;-68
2024/03/02 12:14:37;;;;;;;2.93;2.20;;;18.80;99.90;;;;;;5019665;28;20830;-66
2024/03/02 12:17:04;;;;;;;2.90;2.40;;;21.70;99.90;;;;;;5022439;28;20431;-66
2024/03/02 12:19:31;;;;;;;3.53;2.20;;;23.60;95.30;;;;;;5028051;28;20422;-66
2024/03/02 12:21:57;;;;;;;3.13;1.90;;;25.40;83.90;;;;;;5018737;28;20538;-66
2024/03/02 12:24:24;;;;;;;3.03;2.23;;;26.50;72.10;;;;;;5019075;28;20459;-68
2024/03/02 12:26:50;;;;;;;2.50;2.30;;;28.10;65.60;;;;;;5018977;28;20415;-67
2024/03/02 12:29:16;;;;;;;3.00;2.30;;;29.90;59.90;;;;;;5029431;28;20415;-68
2024/03/02 12:31:45;;;;;;;2.77;2.13;;;31.40;54.80;;;;;;5020084;28;20444;-68
2024/03/02 12:34:13;;;;;;;2.60;2.10;;;32.70;50.40;;;;;;5022277;28;20846;-68
2024/03/02 12:36:39;;;;;;;4.20;2.20;;;33.70;45.80;;;;;;5025560;28;20439;-68
2024/03/02 12:39:05;;;;;;;2.90;2.50;;;34.90;44.60;;;;;;5022157;28;20426;-68
2024/03/02 12:41:30;;;;;;;3.37;2.23;;;35.90;42.10;;;;;;5021267;28;20462;-69
2024/03/02 12:43:56;;;;;;;2.73;2.53;;;36.70;38.90;;;;;;5023322;28;20224;-70
2024/03/02 12:46:22;;;;;;;3.60;2.33;;;37.40;37.60;;;;;;5021743;28;20177;-69
2024/03/02 12:48:47;;;;;;;2.67;2.43;;;37.90;34.20;;;;;;5022938;28;20750;-68
2024/03/02 12:51:14;;;;;;;2.50;2.30;;;38.40;33.80;;;;;;5014475;28;20188;-67
2024/03/02 12:53:39;;;;;;;2.63;2.33;;;38.50;32.90;;;;;;5022587;28;20172;-67
2024/03/02 12:56:06;;;;;;;3.00;2.70;;;38.80;32.40;;;;;;5015405;28;20426;-68
2024/03/02 12:58:39;;;;;;;2.80;2.60;;;39.10;30.10;;;;;;5024405;28;20672;-68